sensor_id;sensor_type;location;lat;lon;timestamp;pressure;altitude;pressure_sealevel;temperature;humidity
4576;BME280;2300;51.874;8.430;2023-01-30T00:01:14;100870.63;;;2.35;93.92
4576;BME280;2300;51.874;8.430;2023-01-30T00:03:40;100844.00;;;2.39;93.25
4576;BME280;2300;51.874;8.430;2023-01-30T00:06:07;100846.38;;;2.34;94.04
4576;BME280;2300;51.874;8.430;2023-01-30T00:08:33;100839.31;;;2.33;93.83
4576;BME280;2300;51.874;8.430;2023-01-30T00:11:04;100864.66;;;2.40;94.06
4576;BME280;2300;51.874;8.430;2023-01-30T00:13:31;100868.38;;;2.47;94.03
4576;BME280;2300;51.874;8.430;2023-01-30T00:15:58;100865.66;;;2.47;94.00
4576;BME280;2300;51.874;8.430;2023-01-30T00:18:24;100877.47;;;2.54;94.01
4576;BME280;2300;51.874;8.430;2023-01-30T00:20:54;100868.00;;;2.50;93.84
4576;BME280;2300;51.874;8.430;2023-01-30T00:23:21;100874.13;;;2.52;94.01
4576;BME280;2300;51.874;8.430;2023-01-30T00:25:47;100879.84;;;2.57;94.40
4576;BME280;2300;51.874;8.430;2023-01-30T00:28:15;100860.34;;;2.62;94.39
4576;BME280;2300;51.874;8.430;2023-01-30T00:30:41;100856.75;;;2.69;93.95
4576;BME280;2300;51.874;8.430;2023-01-30T00:33:08;100849.31;;;2.63;94.02
4576;BME280;2300;51.874;8.430;2023-01-30T00:35:34;100856.44;;;2.64;94.41
4576;BME280;2300;51.874;8.430;2023-01-30T00:38:01;100845.63;;;2.56;94.52
4576;BME280;2300;51.874;8.430;2023-01-30T00:40:28;100840.50;;;2.69;95.02
4576;BME280;2300;51.874;8.430;2023-01-30T00:42:55;100812.38;;;2.62;94.50
4576;BME280;2300;51.874;8.430;2023-01-30T00:45:42;100829.34;;;2.64;94.88
4576;BME280;2300;51.874;8.430;2023-01-30T00:48:26;100825.03;;;2.70;94.65
4576;BME280;2300;51.874;8.430;2023-01-30T00:50:53;100822.84;;;2.73;94.65
4576;BME280;2300;51.874;8.430;2023-01-30T00:53:19;100803.47;;;2.76;94.76
4576;BME280;2300;51.874;8.430;2023-01-30T00:55:46;100792.63;;;2.76;94.67
4576;BME280;2300;51.874;8.430;2023-01-30T00:58:13;100785.16;;;2.78;94.76
4576;BME280;2300;51.874;8.430;2023-01-30T01:00:40;100773.94;;;2.82;94.57
4576;BME280;2300;51.874;8.430;2023-01-30T01:03:07;100778.06;;;2.77;94.97
4576;BME280;2300;51.874;8.430;2023-01-30T01:05:33;100774.94;;;2.89;94.70
4576;BME280;2300;51.874;8.430;2023-01-30T01:08:00;100762.69;;;2.93;94.79
4576;BME280;2300;51.874;8.430;2023-01-30T01:10:27;100753.09;;;2.82;94.68
4576;BME280;2300;51.874;8.430;2023-01-30T01:12:53;100765.75;;;2.90;94.66
4576;BME280;2300;51.874;8.430;2023-01-30T01:15:21;100748.13;;;2.86;95.58
4576;BME280;2300;51.874;8.430;2023-01-30T01:17:49;100746.09;;;2.88;95.16
4576;BME280;2300;51.874;8.430;2023-01-30T01:20:17;100743.31;;;2.96;95.43
4576;BME280;2300;51.874;8.430;2023-01-30T01:22:44;100727.88;;;2.96;95.18
4576;BME280;2300;51.874;8.430;2023-01-30T01:25:13;100728.56;;;2.98;95.74
4576;BME280;2300;51.874;8.430;2023-01-30T01:27:40;100725.97;;;3.05;95.51
4576;BME280;2300;51.874;8.430;2023-01-30T01:30:07;100718.56;;;2.99;95.47
4576;BME280;2300;51.874;8.430;2023-01-30T01:32:34;100720.84;;;3.10;95.69
4576;BME280;2300;51.874;8.430;2023-01-30T01:35:02;100725.31;;;3.17;95.18
4576;BME280;2300;51.874;8.430;2023-01-30T01:37:28;100716.25;;;3.10;95.31
4576;BME280;2300;51.874;8.430;2023-01-30T01:39:55;100692.66;;;3.11;95.80
4576;BME280;2300;51.874;8.430;2023-01-30T01:49:38;100668.97;;;3.05;96.69
4576;BME280;2300;51.874;8.430;2023-01-30T01:52:08;100664.47;;;3.12;97.72
4576;BME280;2300;51.874;8.430;2023-01-30T01:54:38;100673.47;;;3.12;97.92
4576;BME280;2300;51.874;8.430;2023-01-30T01:57:11;100666.91;;;3.07;97.07
4576;BME280;2300;51.874;8.430;2023-01-30T01:59:43;100667.19;;;3.12;97.28
4576;BME280;2300;51.874;8.430;2023-01-30T02:02:12;100652.78;;;3.11;98.23
4576;BME280;2300;51.874;8.430;2023-01-30T02:04:42;100643.53;;;3.06;97.89
4576;BME280;2300;51.874;8.430;2023-01-30T02:07:34;100641.88;;;3.19;98.84
4576;BME280;2300;51.874;8.430;2023-01-30T02:10:02;100636.06;;;3.22;97.49
4576;BME280;2300;51.874;8.430;2023-01-30T02:12:30;100643.63;;;3.27;98.14
4576;BME280;2300;51.874;8.430;2023-01-30T02:14:56;100639.16;;;3.19;98.54
4576;BME280;2300;51.874;8.430;2023-01-30T02:17:24;100640.28;;;3.25;98.73
4576;BME280;2300;51.874;8.430;2023-01-30T02:19:54;100640.91;;;3.27;99.29
4576;BME280;2300;51.874;8.430;2023-01-30T02:25:56;100625.28;;;3.29;100.00
4576;BME280;2300;51.874;8.430;2023-01-30T02:28:56;100606.69;;;3.41;100.00
4576;BME280;2300;51.874;8.430;2023-01-30T02:31:36;100619.13;;;3.35;100.00
4576;BME280;2300;51.874;8.430;2023-01-30T02:34:13;100590.69;;;3.31;100.00
4576;BME280;2300;51.874;8.430;2023-01-30T02:36:51;100606.78;;;3.47;100.00
4576;BME280;2300;51.874;8.430;2023-01-30T02:39:38;100574.09;;;3.41;100.00
4576;BME280;2300;51.874;8.430;2023-01-30T02:42:10;100586.53;;;3.50;100.00
4576;BME280;2300;51.874;8.430;2023-01-30T02:44:47;100571.47;;;3.47;100.00
4576;BME280;2300;51.874;8.430;2023-01-30T02:47:21;100573.41;;;3.53;100.00
4576;BME280;2300;51.874;8.430;2023-01-30T02:49:53;100560.88;;;3.52;100.00
4576;BME280;2300;51.874;8.430;2023-01-30T02:52:22;100562.94;;;3.50;100.00
4576;BME280;2300;51.874;8.430;2023-01-30T02:54:48;100564.91;;;3.56;100.00
4576;BME280;2300;51.874;8.430;2023-01-30T02:57:18;100546.66;;;3.50;100.00
4576;BME280;2300;51.874;8.430;2023-01-30T02:59:48;100546.91;;;3.55;100.00
4576;BME280;2300;51.874;8.430;2023-01-30T03:02:49;100533.44;;;3.62;100.00
4576;BME280;2300;51.874;8.430;2023-01-30T03:05:40;100523.41;;;3.62;100.00
4576;BME280;2300;51.874;8.430;2023-01-30T03:08:17;100512.06;;;3.59;100.00
4576;BME280;2300;51.874;8.430;2023-01-30T03:10:51;100515.91;;;3.64;100.00
4576;BME280;2300;51.874;8.430;2023-01-30T03:13:24;100512.25;;;3.72;100.00
4576;BME280;2300;51.874;8.430;2023-01-30T03:15:54;100523.72;;;3.74;100.00
4576;BME280;2300;51.874;8.430;2023-01-30T03:18:26;100528.53;;;3.72;100.00
4576;BME280;2300;51.874;8.430;2023-01-30T03:20:52;100508.28;;;3.75;100.00
4576;BME280;2300;51.874;8.430;2023-01-30T03:23:19;100526.53;;;3.81;100.00
4576;BME280;2300;51.874;8.430;2023-01-30T03:25:46;100517.44;;;3.88;100.00
4576;BME280;2300;51.874;8.430;2023-01-30T03:28:16;100517.88;;;3.92;100.00
4576;BME280;2300;51.874;8.430;2023-01-30T03:30:43;100519.03;;;3.83;100.00
4576;BME280;2300;51.874;8.430;2023-01-30T03:33:10;100515.16;;;3.92;100.00
4576;BME280;2300;51.874;8.430;2023-01-30T03:35:38;100514.38;;;3.98;100.00
4576;BME280;2300;51.874;8.430;2023-01-30T03:38:04;100504.66;;;3.89;100.00
4576;BME280;2300;51.874;8.430;2023-01-30T03:40:31;100471.75;;;3.77;100.00
4576;BME280;2300;51.874;8.430;2023-01-30T03:42:57;100488.34;;;3.89;100.00
4576;BME280;2300;51.874;8.430;2023-01-30T03:45:24;100481.53;;;3.93;100.00
4576;BME280;2300;51.874;8.430;2023-01-30T03:47:50;100485.84;;;3.87;100.00
4576;BME280;2300;51.874;8.430;2023-01-30T03:50:17;100482.72;;;3.90;100.00
4576;BME280;2300;51.874;8.430;2023-01-30T03:52:44;100479.25;;;3.96;100.00
4576;BME280;2300;51.874;8.430;2023-01-30T03:55:11;100464.31;;;3.86;100.00
4576;BME280;2300;51.874;8.430;2023-01-30T03:57:37;100463.47;;;3.85;100.00
4576;BME280;2300;51.874;8.430;2023-01-30T04:00:04;100457.06;;;3.93;100.00
4576;BME280;2300;51.874;8.430;2023-01-30T04:02:31;100460.81;;;3.92;100.00
4576;BME280;2300;51.874;8.430;2023-01-30T04:04:57;100461.06;;;3.97;100.00
4576;BME280;2300;51.874;8.430;2023-01-30T04:07:24;100459.38;;;3.96;100.00
4576;BME280;2300;51.874;8.430;2023-01-30T04:09:52;100450.88;;;3.99;100.00
4576;BME280;2300;51.874;8.430;2023-01-30T04:12:18;100452.78;;;4.05;100.00
4576;BME280;2300;51.874;8.430;2023-01-30T04:14:44;100444.19;;;4.01;100.00
4576;BME280;2300;51.874;8.430;2023-01-30T04:17:11;100442.25;;;3.95;100.00
4576;BME280;2300;51.874;8.430;2023-01-30T04:19:37;100432.81;;;3.91;100.00
4576;BME280;2300;51.874;8.430;2023-01-30T04:22:04;100434.69;;;3.91;100.00
4576;BME280;2300;51.874;8.430;2023-01-30T04:24:30;100428.03;;;3.93;100.00
4576;BME280;2300;51.874;8.430;2023-01-30T04:26:58;100425.56;;;3.98;100.00
4576;BME280;2300;51.874;8.430;2023-01-30T04:29:25;100382.31;;;3.76;100.00
4576;BME280;2300;51.874;8.430;2023-01-30T04:31:51;100436.69;;;4.03;100.00
4576;BME280;2300;51.874;8.430;2023-01-30T04:34:17;100432.72;;;4.06;100.00
4576;BME280;2300;51.874;8.430;2023-01-30T04:36:44;100439.19;;;4.05;100.00
4576;BME280;2300;51.874;8.430;2023-01-30T04:39:10;100432.34;;;4.09;100.00
4576;BME280;2300;51.874;8.430;2023-01-30T04:41:37;100431.94;;;4.12;100.00
4576;BME280;2300;51.874;8.430;2023-01-30T04:44:05;100437.38;;;4.12;100.00
4576;BME280;2300;51.874;8.430;2023-01-30T04:46:31;100449.94;;;4.13;100.00
4576;BME280;2300;51.874;8.430;2023-01-30T04:48:58;100435.75;;;4.18;100.00
4576;BME280;2300;51.874;8.430;2023-01-30T04:51:24;100425.53;;;4.20;100.00
4576;BME280;2300;51.874;8.430;2023-01-30T04:53:50;100427.44;;;4.26;100.00
4576;BME280;2300;51.874;8.430;2023-01-30T04:56:17;100434.81;;;4.32;100.00
4576;BME280;2300;51.874;8.430;2023-01-30T04:58:43;100429.63;;;4.37;100.00
4576;BME280;2300;51.874;8.430;2023-01-30T05:01:20;100417.88;;;4.36;100.00
4576;BME280;2300;51.874;8.430;2023-01-30T05:03:49;100397.59;;;4.32;100.00
4576;BME280;2300;51.874;8.430;2023-01-30T05:06:15;100400.31;;;4.32;100.00
4576;BME280;2300;51.874;8.430;2023-01-30T05:08:41;100399.94;;;4.35;100.00
4576;BME280;2300;51.874;8.430;2023-01-30T05:11:08;100408.59;;;4.45;100.00
4576;BME280;2300;51.874;8.430;2023-01-30T05:13:34;100393.31;;;4.44;100.00
4576;BME280;2300;51.874;8.430;2023-01-30T05:16:01;100398.34;;;4.47;100.00
4576;BME280;2300;51.874;8.430;2023-01-30T05:18:29;100392.47;;;4.44;100.00
4576;BME280;2300;51.874;8.430;2023-01-30T05:21:02;100384.59;;;4.56;100.00
4576;BME280;2300;51.874;8.430;2023-01-30T05:23:29;100396.69;;;4.53;100.00
4576;BME280;2300;51.874;8.430;2023-01-30T05:25:55;100386.50;;;4.62;100.00
4576;BME280;2300;51.874;8.430;2023-01-30T05:28:22;100390.63;;;4.51;100.00
4576;BME280;2300;51.874;8.430;2023-01-30T05:30:48;100382.72;;;4.56;100.00
4576;BME280;2300;51.874;8.430;2023-01-30T05:33:15;100364.97;;;4.60;100.00
4576;BME280;2300;51.874;8.430;2023-01-30T05:35:46;100363.03;;;4.54;100.00
4576;BME280;2300;51.874;8.430;2023-01-30T05:38:13;100391.13;;;4.68;100.00
4576;BME280;2300;51.874;8.430;2023-01-30T05:40:39;100393.84;;;4.68;100.00
4576;BME280;2300;51.874;8.430;2023-01-30T05:43:06;100387.22;;;4.77;100.00
4576;BME280;2300;51.874;8.430;2023-01-30T05:45:34;100398.09;;;4.77;100.00
4576;BME280;2300;51.874;8.430;2023-01-30T05:48:00;100403.78;;;4.82;100.00
4576;BME280;2300;51.874;8.430;2023-01-30T05:50:27;100392.66;;;4.77;100.00
4576;BME280;2300;51.874;8.430;2023-01-30T05:52:55;100393.66;;;4.69;100.00
4576;BME280;2300;51.874;8.430;2023-01-30T05:55:21;100415.94;;;4.86;100.00
4576;BME280;2300;51.874;8.430;2023-01-30T05:57:48;100406.50;;;4.82;100.00
4576;BME280;2300;51.874;8.430;2023-01-30T06:00:15;100400.88;;;4.90;100.00
4576;BME280;2300;51.874;8.430;2023-01-30T06:02:41;100396.88;;;4.86;100.00
4576;BME280;2300;51.874;8.430;2023-01-30T06:05:08;100404.66;;;4.96;100.00
4576;BME280;2300;51.874;8.430;2023-01-30T06:07:34;100401.53;;;4.92;100.00
4576;BME280;2300;51.874;8.430;2023-01-30T06:10:03;100405.72;;;4.95;100.00
4576;BME280;2300;51.874;8.430;2023-01-30T06:12:29;100413.72;;;5.03;100.00
4576;BME280;2300;51.874;8.430;2023-01-30T06:14:55;100414.28;;;4.98;100.00
4576;BME280;2300;51.874;8.430;2023-01-30T06:17:22;100412.25;;;5.07;100.00
4576;BME280;2300;51.874;8.430;2023-01-30T06:19:48;100412.91;;;5.15;100.00
4576;BME280;2300;51.874;8.430;2023-01-30T06:22:15;100406.41;;;5.10;100.00
4576;BME280;2300;51.874;8.430;2023-01-30T06:24:41;100402.13;;;4.94;100.00
4576;BME280;2300;51.874;8.430;2023-01-30T06:27:09;100412.91;;;5.15;100.00
4576;BME280;2300;51.874;8.430;2023-01-30T06:29:35;100411.66;;;5.11;100.00
4576;BME280;2300;51.874;8.430;2023-01-30T06:32:02;100413.16;;;5.27;100.00
4576;BME280;2300;51.874;8.430;2023-01-30T06:34:28;100399.72;;;5.12;100.00
4576;BME280;2300;51.874;8.430;2023-01-30T06:36:55;100415.41;;;5.10;100.00
4576;BME280;2300;51.874;8.430;2023-01-30T06:39:21;100424.84;;;5.14;100.00
4576;BME280;2300;51.874;8.430;2023-01-30T06:41:48;100412.44;;;5.05;100.00
4576;BME280;2300;51.874;8.430;2023-01-30T06:44:16;100408.97;;;5.18;100.00
4576;BME280;2300;51.874;8.430;2023-01-30T06:46:42;100418.59;;;5.20;100.00
4576;BME280;2300;51.874;8.430;2023-01-30T06:49:08;100420.44;;;5.13;100.00
4576;BME280;2300;51.874;8.430;2023-01-30T06:51:35;100416.28;;;5.17;100.00
4576;BME280;2300;51.874;8.430;2023-01-30T06:54:01;100413.78;;;5.22;100.00
4576;BME280;2300;51.874;8.430;2023-01-30T06:56:28;100419.16;;;5.09;100.00
4576;BME280;2300;51.874;8.430;2023-01-30T06:58:54;100417.94;;;5.18;100.00
4576;BME280;2300;51.874;8.430;2023-01-30T07:01:22;100416.44;;;5.09;100.00
4576;BME280;2300;51.874;8.430;2023-01-30T07:03:48;100417.50;;;5.15;100.00
4576;BME280;2300;51.874;8.430;2023-01-30T07:06:15;100407.28;;;5.17;100.00
4576;BME280;2300;51.874;8.430;2023-01-30T07:08:41;100409.53;;;5.13;100.00
4576;BME280;2300;51.874;8.430;2023-01-30T07:11:08;100416.50;;;5.22;100.00
4576;BME280;2300;51.874;8.430;2023-01-30T07:13:35;100421.50;;;5.12;100.00
4576;BME280;2300;51.874;8.430;2023-01-30T07:16:01;100418.78;;;5.12;100.00
4576;BME280;2300;51.874;8.430;2023-01-30T07:18:29;100420.44;;;5.07;100.00
4576;BME280;2300;51.874;8.430;2023-01-30T07:20:55;100414.13;;;5.06;100.00
4576;BME280;2300;51.874;8.430;2023-01-30T07:23:22;100418.31;;;5.02;99.66
4576;BME280;2300;51.874;8.430;2023-01-30T07:25:48;100414.13;;;5.06;99.20
4576;BME280;2300;51.874;8.430;2023-01-30T07:28:15;100423.34;;;5.05;98.83
4576;BME280;2300;51.874;8.430;2023-01-30T07:30:41;100424.75;;;4.95;97.26
4576;BME280;2300;51.874;8.430;2023-01-30T07:33:08;100428.75;;;4.92;97.61
4576;BME280;2300;51.874;8.430;2023-01-30T07:35:36;100421.13;;;4.81;97.47
4576;BME280;2300;51.874;8.430;2023-01-30T07:38:03;100413.59;;;4.76;97.24
4576;BME280;2300;51.874;8.430;2023-01-30T07:40:30;100421.94;;;4.75;96.65
4576;BME280;2300;51.874;8.430;2023-01-30T07:42:57;100427.16;;;4.70;96.95
4576;BME280;2300;51.874;8.430;2023-01-30T07:45:24;100432.53;;;4.63;96.63
4576;BME280;2300;51.874;8.430;2023-01-30T07:47:51;100439.44;;;4.59;96.57
4576;BME280;2300;51.874;8.430;2023-01-30T07:50:17;100440.41;;;4.52;97.28
4576;BME280;2300;51.874;8.430;2023-01-30T07:52:45;100441.13;;;4.67;97.44
4576;BME280;2300;51.874;8.430;2023-01-30T07:55:12;100455.56;;;4.67;97.15
4576;BME280;2300;51.874;8.430;2023-01-30T07:57:38;100466.63;;;4.59;97.15
4576;BME280;2300;51.874;8.430;2023-01-30T08:00:06;100470.31;;;4.52;97.00
4576;BME280;2300;51.874;8.430;2023-01-30T08:02:35;100478.47;;;4.52;96.87
4576;BME280;2300;51.874;8.430;2023-01-30T08:05:01;100476.59;;;4.52;97.41
4576;BME280;2300;51.874;8.430;2023-01-30T08:07:27;100482.38;;;4.42;97.06
4576;BME280;2300;51.874;8.430;2023-01-30T08:09:55;100479.84;;;4.41;97.15
4576;BME280;2300;51.874;8.430;2023-01-30T08:12:22;100479.47;;;4.44;96.25
4576;BME280;2300;51.874;8.430;2023-01-30T08:14:48;100487.94;;;4.56;96.44
4576;BME280;2300;51.874;8.430;2023-01-30T08:17:15;100477.09;;;4.62;95.92
4576;BME280;2300;51.874;8.430;2023-01-30T08:19:41;100478.19;;;4.68;95.34
4576;BME280;2300;51.874;8.430;2023-01-30T08:22:07;100477.81;;;4.77;93.74
4576;BME280;2300;51.874;8.430;2023-01-30T08:24:34;100474.78;;;4.94;93.07
4576;BME280;2300;51.874;8.430;2023-01-30T08:27:02;100483.16;;;4.92;92.84
4576;BME280;2300;51.874;8.430;2023-01-30T08:29:28;100475.00;;;4.99;93.18
4576;BME280;2300;51.874;8.430;2023-01-30T08:31:56;100467.53;;;5.07;92.62
4576;BME280;2300;51.874;8.430;2023-01-30T08:34:22;100458.06;;;5.03;92.64
4576;BME280;2300;51.874;8.430;2023-01-30T08:36:49;100467.44;;;5.28;92.01
4576;BME280;2300;51.874;8.430;2023-01-30T08:39:15;100472.59;;;5.17;92.39
4576;BME280;2300;51.874;8.430;2023-01-30T08:41:42;100468.47;;;5.27;91.96
4576;BME280;2300;51.874;8.430;2023-01-30T08:44:10;100483.97;;;5.27;92.22
4576;BME280;2300;51.874;8.430;2023-01-30T08:46:37;100487.13;;;5.37;91.61
4576;BME280;2300;51.874;8.430;2023-01-30T08:49:04;100481.31;;;5.47;91.85
4576;BME280;2300;51.874;8.430;2023-01-30T08:51:31;100483.00;;;5.48;91.33
4576;BME280;2300;51.874;8.430;2023-01-30T08:53:58;100489.34;;;5.68;89.99
4576;BME280;2300;51.874;8.430;2023-01-30T08:56:24;100479.94;;;5.84;89.09
4576;BME280;2300;51.874;8.430;2023-01-30T08:58:51;100491.09;;;5.95;88.79
4576;BME280;2300;51.874;8.430;2023-01-30T09:01:19;100490.84;;;5.97;88.06
4576;BME280;2300;51.874;8.430;2023-01-30T09:03:45;100481.22;;;6.07;86.91
4576;BME280;2300;51.874;8.430;2023-01-30T09:06:12;100483.13;;;6.13;85.35
4576;BME280;2300;51.874;8.430;2023-01-30T09:08:38;100492.78;;;6.09;85.32
4576;BME280;2300;51.874;8.430;2023-01-30T09:11:05;100492.38;;;6.06;85.26
4576;BME280;2300;51.874;8.430;2023-01-30T09:13:33;100483.53;;;5.97;85.66
4576;BME280;2300;51.874;8.430;2023-01-30T09:15:59;100486.91;;;6.12;85.20
4576;BME280;2300;51.874;8.430;2023-01-30T09:18:27;100491.28;;;6.07;84.62
4576;BME280;2300;51.874;8.430;2023-01-30T09:21:01;100499.91;;;6.17;84.63
4576;BME280;2300;51.874;8.430;2023-01-30T09:23:27;100498.00;;;6.04;84.30
4576;BME280;2300;51.874;8.430;2023-01-30T09:25:54;100489.19;;;6.02;84.65
4576;BME280;2300;51.874;8.430;2023-01-30T09:28:20;100481.03;;;6.15;84.17
4576;BME280;2300;51.874;8.430;2023-01-30T09:30:47;100495.47;;;5.96;84.15
4576;BME280;2300;51.874;8.430;2023-01-30T09:33:13;100501.53;;;5.92;84.20
4576;BME280;2300;51.874;8.430;2023-01-30T09:35:41;100497.78;;;5.93;84.62
4576;BME280;2300;51.874;8.430;2023-01-30T09:38:08;100500.31;;;5.94;84.21
4576;BME280;2300;51.874;8.430;2023-01-30T09:40:37;100499.28;;;6.08;83.44
4576;BME280;2300;51.874;8.430;2023-01-30T09:43:28;100524.22;;;6.12;83.82
4576;BME280;2300;51.874;8.430;2023-01-30T09:46:11;100523.00;;;6.21;83.60
4576;BME280;2300;51.874;8.430;2023-01-30T09:48:50;100528.84;;;6.18;83.63
4576;BME280;2300;51.874;8.430;2023-01-30T09:51:42;100529.09;;;6.16;84.23
4576;BME280;2300;51.874;8.430;2023-01-30T09:54:16;100518.34;;;6.08;83.48
4576;BME280;2300;51.874;8.430;2023-01-30T09:56:51;100518.16;;;6.10;83.19
4576;BME280;2300;51.874;8.430;2023-01-30T09:59:24;100516.25;;;6.04;82.63
4576;BME280;2300;51.874;8.430;2023-01-30T10:01:59;100519.19;;;5.96;82.54
4576;BME280;2300;51.874;8.430;2023-01-30T10:04:32;100516.22;;;5.97;82.20
4576;BME280;2300;51.874;8.430;2023-01-30T10:07:09;100504.50;;;5.90;82.31
4576;BME280;2300;51.874;8.430;2023-01-30T10:09:45;100509.13;;;6.03;82.45
4576;BME280;2300;51.874;8.430;2023-01-30T10:12:24;100509.56;;;6.19;81.94
4576;BME280;2300;51.874;8.430;2023-01-30T10:15:08;100524.66;;;6.15;80.67
4576;BME280;2300;51.874;8.430;2023-01-30T10:17:49;100521.72;;;6.10;80.43
4576;BME280;2300;51.874;8.430;2023-01-30T10:20:28;100518.16;;;6.10;80.01
4576;BME280;2300;51.874;8.430;2023-01-30T10:23:11;100526.59;;;6.41;80.55
4576;BME280;2300;51.874;8.430;2023-01-30T10:25:43;100520.69;;;6.31;80.01
4576;BME280;2300;51.874;8.430;2023-01-30T10:28:15;100521.75;;;6.37;79.74
4576;BME280;2300;51.874;8.430;2023-01-30T10:30:45;100511.44;;;6.39;80.05
4576;BME280;2300;51.874;8.430;2023-01-30T10:33:19;100520.50;;;6.26;79.90
4576;BME280;2300;51.874;8.430;2023-01-30T10:35:55;100522.59;;;6.37;79.60
4576;BME280;2300;51.874;8.430;2023-01-30T10:38:28;100509.59;;;6.52;79.38
4576;BME280;2300;51.874;8.430;2023-01-30T10:40:59;100494.66;;;6.55;79.53
4576;BME280;2300;51.874;8.430;2023-01-30T10:43:30;100500.75;;;6.70;79.30
4576;BME280;2300;51.874;8.430;2023-01-30T10:46:03;100523.41;;;7.03;79.47
4576;BME280;2300;51.874;8.430;2023-01-30T10:48:54;100517.34;;;6.88;78.02
4576;BME280;2300;51.874;8.430;2023-01-30T10:51:40;100514.63;;;6.82;78.30
4576;BME280;2300;51.874;8.430;2023-01-30T10:54:13;100510.41;;;6.66;77.94
4576;BME280;2300;51.874;8.430;2023-01-30T10:56:47;100515.25;;;6.84;77.42
4576;BME280;2300;51.874;8.430;2023-01-30T10:59:23;100523.41;;;6.64;77.83
4576;BME280;2300;51.874;8.430;2023-01-30T11:01:59;100530.75;;;6.63;78.34
4576;BME280;2300;51.874;8.430;2023-01-30T11:04:38;100523.84;;;6.68;78.17
4576;BME280;2300;51.874;8.430;2023-01-30T11:07:06;100517.75;;;6.46;78.56
4576;BME280;2300;51.874;8.430;2023-01-30T11:09:39;100524.66;;;6.48;77.75
4576;BME280;2300;51.874;8.430;2023-01-30T11:12:06;100502.44;;;6.32;77.75
4576;BME280;2300;51.874;8.430;2023-01-30T11:14:51;100523.63;;;6.56;78.29
4576;BME280;2300;51.874;8.430;2023-01-30T11:17:19;100501.19;;;6.74;77.83
4576;BME280;2300;51.874;8.430;2023-01-30T11:19:53;100508.97;;;6.83;77.46
4576;BME280;2300;51.874;8.430;2023-01-30T11:22:20;100492.56;;;6.77;77.61
4576;BME280;2300;51.874;8.430;2023-01-30T11:24:59;100494.66;;;6.81;77.75
4576;BME280;2300;51.874;8.430;2023-01-30T11:27:27;100497.78;;;7.05;78.14
4576;BME280;2300;51.874;8.430;2023-01-30T11:30:03;100505.34;;;6.89;77.39
4576;BME280;2300;51.874;8.430;2023-01-30T11:32:30;100504.31;;;6.71;77.74
4576;BME280;2300;51.874;8.430;2023-01-30T11:35:19;100500.34;;;6.73;77.61
4576;BME280;2300;51.874;8.430;2023-01-30T11:37:48;100485.44;;;6.49;78.12
4576;BME280;2300;51.874;8.430;2023-01-30T11:40:23;100500.53;;;6.39;77.86
4576;BME280;2300;51.874;8.430;2023-01-30T11:42:52;100492.78;;;6.55;77.94
4576;BME280;2300;51.874;8.430;2023-01-30T11:45:24;100481.47;;;6.52;77.96
4576;BME280;2300;51.874;8.430;2023-01-30T11:47:53;100492.75;;;6.75;78.12
4576;BME280;2300;51.874;8.430;2023-01-30T11:50:23;100485.84;;;6.92;77.46
4576;BME280;2300;51.874;8.430;2023-01-30T11:52:52;100481.97;;;7.20;76.75
4576;BME280;2300;51.874;8.430;2023-01-30T11:55:20;100474.16;;;7.30;76.02
4576;BME280;2300;51.874;8.430;2023-01-30T11:57:49;100499.75;;;7.42;75.96
4576;BME280;2300;51.874;8.430;2023-01-30T12:00:20;100481.72;;;7.34;75.94
4576;BME280;2300;51.874;8.430;2023-01-30T12:02:48;100492.19;;;7.44;75.77
4576;BME280;2300;51.874;8.430;2023-01-30T12:05:21;100457.84;;;7.10;75.50
4576;BME280;2300;51.874;8.430;2023-01-30T12:07:50;100482.22;;;7.12;75.45
4576;BME280;2300;51.874;8.430;2023-01-30T12:10:28;100483.25;;;7.17;75.64
4576;BME280;2300;51.874;8.430;2023-01-30T12:12:55;100474.97;;;7.37;76.04
4576;BME280;2300;51.874;8.430;2023-01-30T12:15:26;100475.22;;;7.29;75.41
4576;BME280;2300;51.874;8.430;2023-01-30T12:17:58;100486.34;;;7.34;74.74
4576;BME280;2300;51.874;8.430;2023-01-30T12:20:40;100474.41;;;7.22;75.01
4576;BME280;2300;51.874;8.430;2023-01-30T12:23:14;100486.34;;;7.27;74.76
4576;BME280;2300;51.874;8.430;2023-01-30T12:25:50;100470.22;;;7.13;75.29
4576;BME280;2300;51.874;8.430;2023-01-30T12:28:23;100471.38;;;7.36;75.12
4576;BME280;2300;51.874;8.430;2023-01-30T12:30:54;100485.13;;;7.68;73.92
4576;BME280;2300;51.874;8.430;2023-01-30T12:33:27;100495.50;;;7.91;74.10
4576;BME280;2300;51.874;8.430;2023-01-30T12:36:01;100499.69;;;7.93;73.00
4576;BME280;2300;51.874;8.430;2023-01-30T12:38:47;100494.00;;;7.95;72.56
4576;BME280;2300;51.874;8.430;2023-01-30T12:44:30;100481.47;;;7.80;72.09
4576;BME280;2300;51.874;8.430;2023-01-30T12:47:15;100475.13;;;7.86;71.81
4576;BME280;2300;51.874;8.430;2023-01-30T12:49:58;100474.84;;;7.63;72.59
4576;BME280;2300;51.874;8.430;2023-01-30T12:52:50;100485.09;;;7.30;73.12
4576;BME280;2300;51.874;8.430;2023-01-30T12:55:29;100483.88;;;7.19;73.33
4576;BME280;2300;51.874;8.430;2023-01-30T12:58:04;100481.75;;;7.21;74.04
4576;BME280;2300;51.874;8.430;2023-01-30T13:00:45;100487.56;;;7.38;73.20
4576;BME280;2300;51.874;8.430;2023-01-30T13:03:29;100490.97;;;7.27;73.56
4576;BME280;2300;51.874;8.430;2023-01-30T13:06:11;100491.41;;;7.24;74.04
4576;BME280;2300;51.874;8.430;2023-01-30T13:08:53;100517.22;;;7.41;74.14
4576;BME280;2300;51.874;8.430;2023-01-30T13:11:35;100510.75;;;7.16;73.13
4576;BME280;2300;51.874;8.430;2023-01-30T13:14:12;100521.97;;;6.81;73.87
4576;BME280;2300;51.874;8.430;2023-01-30T13:16:50;100522.56;;;7.10;73.65
4576;BME280;2300;51.874;8.430;2023-01-30T13:19:25;100538.53;;;6.99;74.92
4576;BME280;2300;51.874;8.430;2023-01-30T13:22:00;100549.25;;;6.68;76.37
4576;BME280;2300;51.874;8.430;2023-01-30T13:24:40;100558.69;;;6.46;78.12
4576;BME280;2300;51.874;8.430;2023-01-30T13:27:12;100563.72;;;6.49;79.48
4576;BME280;2300;51.874;8.430;2023-01-30T13:29:42;100554.69;;;6.55;79.00
4576;BME280;2300;51.874;8.430;2023-01-30T13:32:13;100568.75;;;6.65;78.11
4576;BME280;2300;51.874;8.430;2023-01-30T13:34:43;100550.72;;;6.77;77.98
4576;BME280;2300;51.874;8.430;2023-01-30T13:37:13;100573.84;;;6.88;77.63
4576;BME280;2300;51.874;8.430;2023-01-30T13:39:43;100570.44;;;6.66;78.33
4576;BME280;2300;51.874;8.430;2023-01-30T13:42:16;100570.84;;;6.50;79.03
4576;BME280;2300;51.874;8.430;2023-01-30T13:44:48;100585.09;;;6.26;81.14
4576;BME280;2300;51.874;8.430;2023-01-30T13:47:26;100590.50;;;6.12;82.76